Time;durP1;ratioP1;P1;durP2;ratioP2;P2;SDS_P1;SDS_P2;PMS_P1;PMS_P2;Temp;Humidity;BMP_temperature;BMP_pressure;BME280_temperature;BME280_humidity;BME280_pressure;Samples;Min_cycle;Max_cycle;Signal;HPM_P1;HPM_P2
2022/07/16 00:01:24;;;;;;;3.03;1.10;;;12.00;99.90;;;;;;8345740;28;20204;-65
2022/07/16 00:05:24;;;;;;;3.23;0.90;;;12.00;99.90;;;;;;8317817;28;20195;-64
2022/07/16 00:09:25;;;;;;;2.37;1.10;;;12.00;99.90;;;;;;8337472;28;20263;-63
2022/07/16 00:13:26;;;;;;;2.77;1.40;;;11.90;99.90;;;;;;8339472;28;20199;-64
2022/07/16 00:17:27;;;;;;;2.17;1.00;;;12.00;99.90;;;;;;8316831;28;20209;-65
2022/07/16 00:21:28;;;;;;;3.37;1.37;;;12.00;99.90;;;;;;8320892;28;20251;-67
2022/07/16 00:25:29;;;;;;;2.93;1.20;;;12.10;99.90;;;;;;8341999;28;20207;-63
2022/07/16 00:29:29;;;;;;;1.97;1.00;;;12.10;99.90;;;;;;8334348;28;20265;-65
2022/07/16 00:33:30;;;;;;;3.63;1.00;;;12.10;99.90;;;;;;8324524;28;20192;-64
2022/07/16 00:37:31;;;;;;;3.37;1.17;;;12.10;99.90;;;;;;8322081;28;20474;-67
2022/07/16 00:41:32;;;;;;;2.40;1.30;;;12.00;99.90;;;;;;8317962;28;20216;-64
2022/07/16 00:45:33;;;;;;;2.93;1.33;;;12.00;99.90;;;;;;8336446;28;20188;-66
2022/07/16 00:49:33;;;;;;;2.20;1.10;;;12.00;99.90;;;;;;8338825;28;20194;-64
2022/07/16 00:53:35;;;;;;;2.20;1.30;;;12.10;99.90;;;;;;8339964;28;20224;-65
2022/07/16 00:57:36;;;;;;;1.90;1.10;;;12.10;99.90;;;;;;8337707;28;20207;-66
2022/07/16 01:01:37;;;;;;;3.10;1.10;;;12.10;99.90;;;;;;8352380;28;20216;-65
2022/07/16 01:05:38;;;;;;;2.20;1.00;;;12.00;99.90;;;;;;8321418;28;20190;-65
2022/07/16 01:09:39;;;;;;;2.37;1.07;;;12.10;99.90;;;;;;8328660;28;20271;-63
2022/07/16 01:13:42;;;;;;;2.17;0.90;;;12.10;99.90;;;;;;8337292;28;20236;-64
2022/07/16 01:17:43;;;;;;;1.77;1.00;;;12.10;99.90;;;;;;8324808;28;20212;-64
2022/07/16 01:21:44;;;;;;;1.93;1.20;;;12.20;99.90;;;;;;8343435;28;20206;-64
2022/07/16 01:25:44;;;;;;;3.13;1.00;;;12.20;99.90;;;;;;8330129;28;20180;-65
2022/07/16 01:29:46;;;;;;;1.43;0.90;;;12.30;99.90;;;;;;8328724;28;20199;-65
2022/07/16 01:34:24;;;;;;;1.63;1.00;;;12.30;99.90;;;;;;8317769;28;20200;-65
2022/07/16 01:38:10;;;;;;;3.30;1.07;;;12.30;99.90;;;;;;8351631;28;20239;-66
2022/07/16 01:42:11;;;;;;;1.50;1.00;;;12.30;99.90;;;;;;8348980;28;20177;-67
2022/07/16 01:46:12;;;;;;;3.40;1.10;;;12.40;99.90;;;;;;8354110;28;20182;-64
2022/07/16 01:50:13;;;;;;;2.80;1.20;;;12.40;99.90;;;;;;8340092;28;20216;-63
2022/07/16 01:54:14;;;;;;;2.63;1.20;;;12.40;99.90;;;;;;8318906;28;20216;-63
2022/07/16 01:58:16;;;;;;;2.90;1.00;;;12.40;99.90;;;;;;8351581;28;20209;-64
2022/07/16 02:02:17;;;;;;;2.73;0.90;;;12.40;99.90;;;;;;8323620;28;20219;-63
2022/07/16 02:06:17;;;;;;;2.53;1.23;;;12.40;99.90;;;;;;8324404;28;20212;-64
2022/07/16 02:10:18;;;;;;;2.37;0.90;;;12.50;99.90;;;;;;8332158;28;20279;-64
2022/07/16 02:14:19;;;;;;;2.27;1.07;;;12.50;99.90;;;;;;8337981;28;20185;-66
2022/07/16 02:18:20;;;;;;;2.33;0.90;;;12.50;99.90;;;;;;8340913;28;20269;-63
2022/07/16 02:22:21;;;;;;;3.87;1.37;;;12.50;99.90;;;;;;8318182;28;20350;-64
2022/07/16 02:26:22;;;;;;;3.70;1.00;;;12.50;99.90;;;;;;8340985;28;20190;-66
2022/07/16 02:30:23;;;;;;;3.07;1.53;;;12.50;99.90;;;;;;8327700;28;20199;-65
2022/07/16 02:34:24;;;;;;;2.33;0.93;;;12.60;99.90;;;;;;8343819;28;20187;-63
2022/07/16 02:38:24;;;;;;;4.13;1.50;;;12.60;99.90;;;;;;8356610;28;20310;-62
2022/07/16 02:42:25;;;;;;;1.47;1.10;;;12.60;99.90;;;;;;8339192;28;20192;-64
2022/07/16 02:46:26;;;;;;;4.43;1.43;;;12.60;99.90;;;;;;8333398;28;20216;-62
2022/07/16 02:50:28;;;;;;;3.43;1.20;;;12.60;99.90;;;;;;8318764;28;20331;-63
2022/07/16 02:54:28;;;;;;;2.83;1.10;;;12.60;99.90;;;;;;8322523;28;20202;-66
2022/07/16 02:58:29;;;;;;;2.47;1.30;;;12.70;99.90;;;;;;8336069;28;20207;-63
2022/07/16 03:02:30;;;;;;;3.33;1.30;;;12.60;99.90;;;;;;8329240;28;20225;-62
2022/07/16 03:06:31;;;;;;;5.27;1.30;;;12.70;99.90;;;;;;8322224;28;20189;-63
2022/07/16 03:10:31;;;;;;;4.37;1.30;;;12.70;99.90;;;;;;8342904;28;20189;-63
2022/07/16 03:14:32;;;;;;;2.07;1.07;;;12.70;99.90;;;;;;8326924;28;20192;-62
2022/07/16 03:18:33;;;;;;;3.20;1.30;;;12.70;99.90;;;;;;8343792;28;20268;-63
2022/07/16 03:22:33;;;;;;;2.40;1.47;;;12.70;99.90;;;;;;8344185;28;20228;-65
2022/07/16 03:26:34;;;;;;;3.00;0.90;;;12.70;99.90;;;;;;8348177;28;20237;-63
2022/07/16 03:30:36;;;;;;;2.17;1.43;;;12.70;99.90;;;;;;8332265;28;20196;-63
2022/07/16 03:34:37;;;;;;;2.00;1.27;;;12.80;99.90;;;;;;8341133;28;20179;-64
2022/07/16 03:42:57;;;;;;;2.90;1.00;;;12.80;99.90;;;;;;8346673;28;20196;-64
2022/07/16 03:46:59;;;;;;;1.90;1.23;;;12.80;99.90;;;;;;8324804;28;20207;-64
2022/07/16 03:50:59;;;;;;;2.63;1.10;;;12.80;99.90;;;;;;8357903;28;20296;-64
2022/07/16 03:55:00;;;;;;;3.37;1.37;;;12.90;99.90;;;;;;8350322;28;20192;-64
2022/07/16 03:59:01;;;;;;;2.90;1.03;;;12.90;99.90;;;;;;8346207;28;20208;-65
2022/07/16 04:03:02;;;;;;;3.40;1.53;;;13.00;99.90;;;;;;8339476;28;20209;-63
2022/07/16 04:07:03;;;;;;;4.77;1.67;;;13.10;99.90;;;;;;8353784;28;20188;-62
2022/07/16 04:11:04;;;;;;;2.87;1.17;;;13.20;99.90;;;;;;8326460;28;20281;-62
2022/07/16 04:15:05;;;;;;;1.50;0.90;;;13.30;99.90;;;;;;8351417;28;20182;-62
2022/07/16 04:19:06;;;;;;;2.83;1.57;;;13.40;99.90;;;;;;8351818;28;20237;-62
2022/07/16 04:23:07;;;;;;;2.10;1.23;;;13.50;99.90;;;;;;8360407;28;20386;-63
2022/07/16 04:27:08;;;;;;;1.83;1.20;;;13.70;99.90;;;;;;8328161;28;20210;-63
2022/07/16 04:31:08;;;;;;;3.80;1.40;;;13.80;99.90;;;;;;8322360;28;20219;-62
2022/07/16 04:35:11;;;;;;;2.57;1.17;;;14.10;99.90;;;;;;8328894;28;20201;-62
2022/07/16 04:39:12;;;;;;;4.33;0.97;;;14.30;99.90;;;;;;8327279;28;20214;-62
2022/07/16 04:43:13;;;;;;;3.17;1.40;;;14.40;99.90;;;;;;8341167;28;20185;-64
2022/07/16 04:47:13;;;;;;;2.83;1.30;;;14.70;99.90;;;;;;8343202;28;20190;-62
2022/07/16 04:51:14;;;;;;;3.83;1.30;;;14.90;75.80;;;;;;8337362;28;20226;-62
2022/07/16 04:55:15;;;;;;;2.63;1.00;;;15.10;49.60;;;;;;8320864;28;20320;-61
2022/07/16 04:59:16;;;;;;;2.47;1.07;;;15.50;24.40;;;;;;8327635;28;20221;-63
2022/07/16 05:03:17;;;;;;;2.40;1.10;;;15.70;11.80;;;;;;8364321;28;20193;-64
2022/07/16 05:07:18;;;;;;;3.03;1.20;;;15.80;1.00;;;;;;8344588;28;20190;-62
2022/07/16 05:11:19;;;;;;;1.83;0.80;;;15.80;1.00;;;;;;8342920;28;20199;-62
2022/07/16 05:15:20;;;;;;;3.33;1.30;;;16.00;1.00;;;;;;8336728;28;20194;-65
2022/07/16 05:19:21;;;;;;;1.93;0.87;;;16.20;1.00;;;;;;8349175;28;20218;-62
2022/07/16 05:23:22;;;;;;;2.63;1.10;;;16.40;1.00;;;;;;8327900;28;20190;-63
2022/07/16 05:27:23;;;;;;;2.30;0.97;;;16.60;1.00;;;;;;8332895;28;20215;-64
2022/07/16 05:31:24;;;;;;;3.07;0.80;;;16.90;1.00;;;;;;8326982;28;20194;-62
2022/07/16 05:35:24;;;;;;;1.47;0.80;;;17.20;1.00;;;;;;8334842;28;20249;-62
2022/07/16 05:39:25;;;;;;;1.47;0.70;;;17.50;1.00;;;;;;8354922;28;20231;-62
2022/07/16 05:43:26;;;;;;;2.17;0.77;;;17.90;1.00;;;;;;8325422;28;20185;-68
2022/07/16 05:47:27;;;;;;;1.77;0.87;;;18.20;1.00;;;;;;8343485;28;20196;-64
2022/07/16 05:51:28;;;;;;;2.70;1.00;;;18.30;1.00;;;;;;8327703;28;20253;-64
2022/07/16 05:55:29;;;;;;;5.50;1.10;;;18.30;1.00;;;;;;8342192;28;20235;-64
2022/07/16 05:59:30;;;;;;;2.33;0.80;;;18.00;1.00;;;;;;8340296;28;20221;-62
2022/07/16 06:03:30;;;;;;;5.47;1.10;;;18.00;1.00;;;;;;8342403;28;20270;-62
2022/07/16 06:07:31;;;;;;;2.50;0.60;;;18.20;1.00;;;;;;8327605;28;20518;-63
2022/07/16 06:11:32;;;;;;;2.10;0.67;;;18.40;1.00;;;;;;8354327;28;20198;-65
2022/07/16 06:15:33;;;;;;;1.43;0.70;;;18.70;1.00;;;;;;8328576;28;20213;-62
2022/07/16 06:19:34;;;;;;;3.10;1.00;;;18.90;1.00;;;;;;8336410;28;20217;-66
2022/07/16 06:23:34;;;;;;;2.87;0.70;;;18.90;1.00;;;;;;8329952;28;20544;-71
2022/07/16 06:27:41;;;;;;;6.03;0.80;;;18.70;1.00;;;;;;8334871;28;20198;-66
2022/07/16 06:31:43;;;;;;;3.97;0.70;;;18.80;1.00;;;;;;8321854;28;20390;-64
2022/07/16 06:35:44;;;;;;;1.80;0.80;;;19.00;1.00;;;;;;8331431;28;20185;-64
2022/07/16 06:39:45;;;;;;;1.37;0.60;;;19.30;1.00;;;;;;8332725;28;20260;-64
2022/07/16 06:43:46;;;;;;;2.00;0.80;;;19.70;1.00;;;;;;8332133;28;20186;-65
2022/07/16 06:47:47;;;;;;;2.07;0.90;;;20.00;1.00;;;;;;8325024;28;20194;-67
2022/07/16 06:51:47;;;;;;;3.43;0.90;;;20.20;1.00;;;;;;8327517;28;20252;-67
2022/07/16 06:55:48;;;;;;;2.93;1.00;;;20.70;1.00;;;;;;8340387;28;20197;-71
2022/07/16 06:59:49;;;;;;;1.60;0.43;;;20.90;1.00;;;;;;8335027;28;20236;-65
2022/07/16 07:03:50;;;;;;;1.50;0.47;;;20.80;1.00;;;;;;8346268;28;20182;-65
2022/07/16 07:07:51;;;;;;;2.07;0.30;;;20.60;1.00;;;;;;8349343;28;20190;-67
2022/07/16 07:11:52;;;;;;;1.07;0.40;;;20.30;1.00;;;;;;8349203;28;20204;-68
2022/07/16 07:15:52;;;;;;;1.70;0.40;;;20.00;1.00;;;;;;8316700;28;20198;-66
2022/07/16 07:19:53;;;;;;;3.30;0.60;;;20.10;1.00;;;;;;8350413;28;20266;-65
2022/07/16 07:23:55;;;;;;;1.77;0.50;;;20.20;1.00;;;;;;8335817;28;20241;-69
2022/07/16 07:27:56;;;;;;;1.70;0.40;;;20.20;1.00;;;;;;8354606;28;20182;-66
2022/07/16 07:31:57;;;;;;;4.57;0.60;;;20.30;1.00;;;;;;8334118;28;20193;-62
2022/07/16 07:35:58;;;;;;;3.67;0.50;;;20.60;1.00;;;;;;8350946;28;20194;-64
2022/07/16 07:39:59;;;;;;;2.07;0.50;;;21.20;1.00;;;;;;8336221;28;20220;-66
2022/07/16 07:43:59;;;;;;;1.80;0.50;;;21.20;1.00;;;;;;8327217;28;20190;-63
2022/07/16 07:48:00;;;;;;;2.00;0.57;;;20.90;1.00;;;;;;8334440;28;20280;-70
2022/07/16 07:52:01;;;;;;;5.87;0.80;;;21.00;1.00;;;;;;8337429;28;20221;-63
2022/07/16 07:56:03;;;;;;;4.40;0.60;;;21.30;1.00;;;;;;8332486;28;20289;-62
2022/07/16 08:00:08;;;;;;;2.30;0.60;;;21.60;1.00;;;;;;8356820;28;20213;-63
2022/07/16 08:04:10;;;;;;;2.87;0.47;;;21.30;1.00;;;;;;8346431;28;20181;-63
2022/07/16 08:08:11;;;;;;;1.50;0.60;;;21.50;1.00;;;;;;8338410;28;20256;-65
2022/07/16 08:12:13;;;;;;;2.20;0.70;;;21.70;1.00;;;;;;8334306;28;20473;-64
2022/07/16 08:16:13;;;;;;;0.93;0.30;;;21.40;1.00;;;;;;8345003;28;20224;-63
2022/07/16 08:20:14;;;;;;;0.87;0.30;;;21.10;1.00;;;;;;8326835;28;20217;-69
2022/07/16 08:28:40;;;;;;;4.70;0.90;;;21.20;1.00;;;;;;8345324;28;20217;-61
2022/07/16 08:32:40;;;;;;;1.97;0.37;;;22.00;1.00;;;;;;8330389;28;20251;-67
2022/07/16 08:36:42;;;;;;;1.50;0.50;;;21.30;1.00;;;;;;8320065;28;20214;-64
2022/07/16 08:40:43;;;;;;;2.57;0.53;;;20.70;1.00;;;;;;8345545;28;20192;-66
2022/07/16 08:44:46;;;;;;;1.73;0.53;;;20.60;1.00;;;;;;8327440;28;20269;-65
2022/07/16 08:48:48;;;;;;;1.07;0.40;;;20.60;1.00;;;;;;8343725;28;20542;-65
2022/07/16 08:52:52;;;;;;;2.57;0.60;;;20.40;1.00;;;;;;8330264;28;20245;-64
2022/07/16 08:56:52;;;;;;;4.27;0.50;;;20.30;1.00;;;;;;8346758;28;20190;-65
2022/07/16 09:00:53;;;;;;;2.63;0.50;;;20.70;1.00;;;;;;8319189;28;20277;-65
2022/07/16 09:04:54;;;;;;;2.33;0.83;;;20.70;1.00;;;;;;8340108;28;20186;-66
2022/07/16 09:08:55;;;;;;;4.43;1.00;;;20.70;1.00;;;;;;8345829;28;20216;-68
2022/07/16 09:12:58;;;;;;;3.93;0.80;;;20.40;1.00;;;;;;8321213;28;20201;-67
2022/07/16 09:17:00;;;;;;;5.40;0.67;;;19.90;1.00;;;;;;8340015;28;20178;-65
2022/07/16 09:21:01;;;;;;;3.40;0.70;;;19.60;1.00;;;;;;8336503;28;20186;-65
2022/07/16 09:25:03;;;;;;;4.00;0.70;;;19.70;1.00;;;;;;8339423;28;20206;-67
2022/07/16 09:29:05;;;;;;;3.63;0.70;;;19.90;1.00;;;;;;8330270;28;20186;-67
2022/07/16 09:33:14;;;;;;;1.00;0.90;;;19.60;1.00;;;;;;8336273;28;20199;-65
2022/07/16 09:37:15;;;;;;;2.23;0.97;;;19.40;1.00;;;;;;8365097;28;20217;-66
2022/07/16 09:41:16;;;;;;;1.10;0.60;;;19.20;1.00;;;;;;8346092;28;20272;-65
2022/07/16 09:45:21;;;;;;;1.50;0.80;;;19.00;1.00;;;;;;8334061;28;20328;-66
2022/07/16 09:49:22;;;;;;;2.17;1.10;;;19.00;1.00;;;;;;8348136;28;20204;-65
2022/07/16 09:53:25;;;;;;;2.93;1.03;;;18.30;37.00;;;;;;8322824;28;20228;-66
2022/07/16 09:57:27;;;;;;;2.40;1.10;;;17.60;99.90;;;;;;8329014;28;20249;-65
2022/07/16 10:01:28;;;;;;;2.00;0.93;;;17.40;99.90;;;;;;8337071;28;20454;-65
2022/07/16 10:05:30;;;;;;;3.03;1.60;;;17.20;99.90;;;;;;8328960;28;20182;-64
2022/07/16 10:09:33;;;;;;;3.40;1.40;;;16.90;2.40;;;;;;8334087;28;20236;-64
2022/07/16 10:13:35;;;;;;;2.97;1.40;;;16.60;99.90;;;;;;8352122;28;20218;-62
2022/07/16 10:17:38;;;;;;;3.17;1.40;;;17.00;99.90;;;;;;8348667;28;20217;-65
2022/07/16 10:21:40;;;;;;;5.43;1.43;;;17.80;99.90;;;;;;8339875;28;20217;-63
2022/07/16 10:25:41;;;;;;;2.57;1.17;;;18.60;15.90;;;;;;8341875;28;20186;-66
2022/07/16 10:29:42;;;;;;;3.83;1.50;;;19.00;99.90;;;;;;8335393;28;20202;-65
2022/07/16 10:33:43;;;;;;;2.13;0.90;;;19.30;99.90;;;;;;8350860;28;20178;-64
2022/07/16 10:37:46;;;;;;;2.63;1.30;;;19.20;99.90;;;;;;8335316;28;20207;-65
2022/07/16 10:42:06;;;;;;;2.30;1.00;;;19.30;99.90;;;;;;8344614;28;20178;-64
2022/07/16 10:46:09;;;;;;;1.70;1.10;;;19.50;99.90;;;;;;8335271;28;20189;-62
2022/07/16 10:50:15;;;;;;;3.17;1.13;;;20.00;99.90;;;;;;8331256;28;20209;-65
2022/07/16 10:54:16;;;;;;;2.03;0.90;;;19.80;99.90;;;;;;8341960;28;20201;-64
2022/07/16 10:58:22;;;;;;;2.53;0.97;;;20.00;99.90;;;;;;8346440;28;20202;-66
2022/07/16 11:02:23;;;;;;;3.50;1.33;;;20.30;42.80;;;;;;8325425;28;20187;-65
2022/07/16 11:06:24;;;;;;;3.07;0.90;;;20.00;97.60;;;;;;8329928;28;20235;-65
2022/07/16 11:10:25;;;;;;;1.40;1.00;;;20.20;57.30;;;;;;8330145;28;20202;-67
2022/07/16 11:14:30;;;;;;;2.03;1.10;;;19.60;43.90;;;;;;8345820;28;20435;-64
2022/07/16 11:18:38;;;;;;;1.20;0.93;;;18.50;99.90;;;;;;8329059;28;20213;-67
2022/07/16 11:22:40;;;;;;;4.30;1.30;;;17.50;1.00;;;;;;8336462;28;20182;-65
2022/07/16 11:26:41;;;;;;;3.73;1.83;;;16.70;99.90;;;;;;8347038;28;20193;-65
2022/07/16 11:30:59;;;;;;;1.97;1.13;;;16.10;1.00;;;;;;8339348;28;20193;-66
2022/07/16 11:35:05;;;;;;;2.20;1.50;;;15.50;1.00;;;;;;8330409;28;20299;-66
2022/07/16 11:39:10;;;;;;;4.10;1.77;;;15.00;1.00;;;;;;8328356;28;20210;-64
2022/07/16 11:43:11;;;;;;;2.43;1.70;;;15.30;1.00;;;;;;8332623;28;20186;-63
2022/07/16 11:47:12;;;;;;;7.87;2.47;;;16.00;99.90;;;;;;8332710;28;20197;-64
2022/07/16 11:51:13;;;;;;;1.93;1.50;;;17.00;99.90;;;;;;8350355;28;20213;-63
2022/07/16 11:55:14;;;;;;;2.87;1.63;;;17.50;1.00;;;;;;8358469;28;20191;-66
2022/07/16 11:59:20;;;;;;;6.20;1.70;;;17.70;99.90;;;;;;8357507;28;20210;-65
2022/07/16 12:03:21;;;;;;;4.00;1.50;;;17.70;1.00;;;;;;8334370;28;20186;-65
2022/07/16 12:07:25;;;;;;;4.23;1.60;;;17.60;5.40;;;;;;8327084;28;20267;-64
2022/07/16 12:11:35;;;;;;;3.70;1.50;;;17.40;1.00;;;;;;8368652;28;20206;-64
2022/07/16 12:15:54;;;;;;;0.87;0.83;;;17.50;99.90;;;;;;8351489;28;20191;-64
2022/07/16 12:20:05;;;;;;;2.97;1.10;;;17.80;99.90;;;;;;8354014;28;20214;-64
2022/07/16 12:24:09;;;;;;;2.53;0.80;;;18.00;1.00;;;;;;8349508;28;20292;-66
2022/07/16 12:28:11;;;;;;;2.10;0.80;;;18.30;99.90;;;;;;8346109;28;20189;-67
2022/07/16 12:32:12;;;;;;;1.20;0.77;;;18.60;99.90;;;;;;8344904;28;20197;-65
2022/07/16 12:36:13;;;;;;;0.77;0.60;;;19.10;99.90;;;;;;8342451;28;20281;-63
2022/07/16 12:40:14;;;;;;;2.63;0.97;;;19.00;99.90;;;;;;8342204;28;20237;-63
2022/07/16 12:44:18;;;;;;;2.10;0.90;;;19.20;99.90;;;;;;8336097;28;20186;-66
2022/07/16 12:48:19;;;;;;;2.00;0.70;;;19.40;99.90;;;;;;8343583;28;20195;-63
2022/07/16 12:52:20;;;;;;;1.83;0.80;;;19.50;64.50;;;;;;8345299;28;20241;-70
2022/07/16 13:00:40;;;;;;;2.87;1.00;;;20.00;14.50;;;;;;8344869;28;20208;-64
2022/07/16 13:04:41;;;;;;;2.70;0.93;;;19.30;5.40;;;;;;8326191;28;20393;-62
2022/07/16 13:08:43;;;;;;;1.37;0.80;;;18.90;23.00;;;;;;8351437;28;20191;-64
2022/07/16 13:12:45;;;;;;;0.67;0.60;;;18.90;1.70;;;;;;8332281;28;20178;-64
2022/07/16 13:16:46;;;;;;;1.13;0.83;;;18.80;24.70;;;;;;8344594;28;20182;-64
2022/07/16 13:20:47;;;;;;;2.17;0.80;;;18.90;1.00;;;;;;8328318;28;20227;-65
2022/07/16 13:24:48;;;;;;;1.67;0.90;;;19.00;17.30;;;;;;8344241;28;20196;-62
2022/07/16 13:28:50;;;;;;;2.60;0.83;;;18.90;11.10;;;;;;8344342;28;20186;-63
2022/07/16 13:32:51;;;;;;;2.30;1.00;;;18.70;99.90;;;;;;8325259;28;20182;-64
2022/07/16 13:36:52;;;;;;;2.10;0.90;;;18.10;99.90;;;;;;8346399;28;20196;-67
2022/07/16 13:40:53;;;;;;;2.53;1.20;;;17.60;99.90;;;;;;8320745;28;20657;-66
2022/07/16 13:45:00;;;;;;;3.97;1.40;;;16.80;1.00;;;;;;8321771;28;21439;-66
2022/07/16 13:49:03;;;;;;;1.60;0.87;;;15.50;92.90;;;;;;8343691;28;20191;-65
2022/07/16 13:53:04;;;;;;;4.33;1.43;;;14.90;99.90;;;;;;8322714;28;20244;-66
2022/07/16 14:01:24;;;;;;;3.63;1.37;;;15.00;1.00;;;;;;8338009;28;20264;-70
2022/07/16 14:05:25;;;;;;;2.17;1.13;;;15.40;99.90;;;;;;8331424;28;20182;-67
2022/07/16 14:09:25;;;;;;;2.37;1.00;;;15.80;1.00;;;;;;8340772;28;20189;-68
2022/07/16 14:13:26;;;;;;;2.57;1.20;;;16.10;99.90;;;;;;8333045;28;20304;-69
2022/07/16 14:17:28;;;;;;;1.20;1.00;;;16.50;1.00;;;;;;8332353;28;20295;-68
2022/07/16 14:21:33;;;;;;;1.57;0.90;;;16.90;99.90;;;;;;8339590;28;20181;-65
2022/07/16 14:25:38;;;;;;;2.40;0.90;;;17.20;99.90;;;;;;8328148;28;20186;-67
2022/07/16 14:29:38;;;;;;;1.40;0.90;;;17.50;99.90;;;;;;8339318;28;20541;-67
2022/07/16 14:33:40;;;;;;;4.20;0.90;;;17.80;97.50;;;;;;8329240;28;20190;-66
2022/07/16 14:37:42;;;;;;;2.57;2.37;;;18.00;99.90;;;;;;8342534;28;20207;-66
2022/07/16 14:41:44;;;;;;;0.93;0.80;;;18.10;99.90;;;;;;8325179;28;20194;-67
2022/07/16 14:45:44;;;;;;;1.77;1.10;;;18.20;99.90;;;;;;8319691;28;20178;-64
2022/07/16 14:49:45;;;;;;;1.23;0.80;;;18.20;99.90;;;;;;8357082;28;20269;-64
2022/07/16 14:53:46;;;;;;;2.13;1.20;;;18.00;99.90;;;;;;8360817;28;20267;-65
2022/07/16 14:57:47;;;;;;;1.83;0.90;;;18.10;99.90;;;;;;8342167;28;20209;-67
2022/07/16 15:01:48;;;;;;;0.93;0.53;;;18.40;99.90;;;;;;8338981;28;20191;-65
2022/07/16 15:05:49;;;;;;;1.20;1.10;;;18.60;1.00;;;;;;8329515;28;20201;-68
2022/07/16 15:09:50;;;;;;;2.13;1.20;;;18.70;1.00;;;;;;8342693;28;20237;-66
2022/07/16 15:13:51;;;;;;;1.57;0.90;;;18.80;1.00;;;;;;8332824;28;20208;-67
2022/07/16 15:17:52;;;;;;;4.33;1.20;;;19.00;1.00;;;;;;8340679;28;20669;-67
2022/07/16 15:21:53;;;;;;;3.50;2.37;;;19.20;99.90;;;;;;8334651;28;20227;-65
2022/07/16 15:25:54;;;;;;;3.83;1.80;;;19.50;99.90;;;;;;8349155;28;20188;-65
2022/07/16 15:29:55;;;;;;;2.40;1.00;;;19.60;99.90;;;;;;8349739;28;20189;-65
2022/07/16 15:33:55;;;;;;;3.50;3.20;;;19.70;99.90;;;;;;8329216;28;20225;-68
2022/07/16 15:37:56;;;;;;;5.47;3.20;;;19.70;99.90;;;;;;8342978;28;20198;-65
2022/07/16 15:41:58;;;;;;;4.53;3.87;;;19.60;99.90;;;;;;8333392;28;20188;-66
2022/07/16 15:45:59;;;;;;;3.53;1.03;;;19.60;99.90;;;;;;8346725;28;20637;-70
2022/07/16 15:49:59;;;;;;;2.17;1.73;;;19.90;99.90;;;;;;8359777;28;20197;-66
2022/07/16 15:54:00;;;;;;;4.07;2.07;;;19.80;99.90;;;;;;8353598;28;20194;-67
2022/07/16 15:58:02;;;;;;;5.07;3.10;;;19.80;99.90;;;;;;8333144;28;20293;-67
2022/07/16 16:02:03;;;;;;;2.27;1.30;;;20.10;99.90;;;;;;8327185;28;20256;-67
2022/07/16 16:06:05;;;;;;;2.00;0.97;;;20.30;51.90;;;;;;8346332;28;20182;-67
2022/07/16 16:10:07;;;;;;;3.70;1.00;;;20.40;83.80;;;;;;8348690;28;21529;-66
2022/07/16 16:14:08;;;;;;;1.47;0.90;;;20.70;47.00;;;;;;8349564;28;20191;-65
2022/07/16 16:18:13;;;;;;;2.20;1.17;;;20.90;28.30;;;;;;8333300;28;20209;-65
2022/07/16 16:22:14;;;;;;;1.77;1.00;;;20.70;21.30;;;;;;8324625;28;20288;-71
2022/07/16 16:26:15;;;;;;;2.97;1.43;;;20.50;38.70;;;;;;8350399;28;20204;-65
2022/07/16 16:30:15;;;;;;;2.60;0.80;;;20.60;74.90;;;;;;8324692;28;20213;-67
2022/07/16 16:34:16;;;;;;;2.10;0.90;;;20.70;1.00;;;;;;8340470;28;20190;-65
2022/07/16 16:38:17;;;;;;;1.77;1.00;;;20.50;1.00;;;;;;8353024;28;20205;-65
2022/07/16 16:42:18;;;;;;;2.30;1.20;;;20.30;1.00;;;;;;8323466;28;20269;-64
2022/07/16 16:46:18;;;;;;;0.70;0.40;;;20.00;1.00;;;;;;8359428;28;20193;-65
2022/07/16 16:50:19;;;;;;;1.03;0.60;;;19.90;1.00;;;;;;8349232;28;20318;-66
2022/07/16 16:54:20;;;;;;;2.90;0.67;;;20.00;1.00;;;;;;8342437;28;20203;-66
2022/07/16 16:58:21;;;;;;;2.17;0.43;;;19.80;1.00;;;;;;8322404;28;20210;-65
2022/07/16 17:02:22;;;;;;;3.00;0.63;;;19.70;1.00;;;;;;8329429;28;20328;-64
2022/07/16 17:06:23;;;;;;;2.97;0.80;;;19.70;1.00;;;;;;8333022;28;20197;-64
2022/07/16 17:10:24;;;;;;;1.67;0.67;;;19.70;1.00;;;;;;8340321;28;20210;-64
2022/07/16 17:14:25;;;;;;;3.37;0.70;;;19.60;1.00;;;;;;8337265;28;20194;-66
2022/07/16 17:18:26;;;;;;;3.00;0.70;;;19.60;1.00;;;;;;8332310;28;20229;-65
2022/07/16 17:22:27;;;;;;;2.30;0.60;;;19.50;1.00;;;;;;8324063;28;20186;-64
2022/07/16 17:26:28;;;;;;;1.87;0.47;;;19.40;1.00;;;;;;8348618;28;20181;-64
2022/07/16 17:30:29;;;;;;;3.60;0.70;;;19.70;1.00;;;;;;8330872;28;20180;-64
2022/07/16 17:34:29;;;;;;;1.40;0.60;;;20.10;1.00;;;;;;8328329;28;20195;-64
2022/07/16 17:38:30;;;;;;;2.60;0.50;;;20.40;1.00;;;;;;8355261;28;20299;-65
2022/07/16 17:42:31;;;;;;;1.47;0.50;;;20.80;1.00;;;;;;8332733;28;20210;-65
2022/07/16 17:46:32;;;;;;;1.47;0.30;;;20.90;1.00;;;;;;8321808;28;20194;-65
2022/07/16 17:50:33;;;;;;;1.07;0.50;;;21.00;1.00;;;;;;8335299;28;20209;-65
2022/07/16 17:54:34;;;;;;;2.13;0.67;;;21.10;1.00;;;;;;8340426;28;20213;-69
2022/07/16 17:58:36;;;;;;;0.93;0.50;;;21.10;1.00;;;;;;8348386;28;20212;-64
2022/07/16 18:02:37;;;;;;;1.53;0.50;;;21.00;1.00;;;;;;8321631;28;20237;-65
2022/07/16 18:06:38;;;;;;;3.13;0.50;;;21.10;1.00;;;;;;8325427;28;20182;-65
2022/07/16 18:10:39;;;;;;;1.10;0.40;;;21.00;1.00;;;;;;8324439;28;20314;-67
2022/07/16 18:14:40;;;;;;;2.03;0.70;;;21.00;1.00;;;;;;8342556;28;20193;-65
2022/07/16 18:18:41;;;;;;;2.17;0.50;;;21.10;1.00;;;;;;8329442;28;20212;-67
2022/07/16 18:22:42;;;;;;;1.93;0.47;;;20.80;1.00;;;;;;8346710;28;20189;-64
2022/07/16 18:26:43;;;;;;;2.20;0.60;;;20.80;1.00;;;;;;8339637;28;20189;-66
2022/07/16 18:30:44;;;;;;;1.30;0.50;;;20.40;1.00;;;;;;8339354;28;20225;-64
2022/07/16 18:34:45;;;;;;;1.37;0.50;;;20.10;1.00;;;;;;8331123;28;20237;-65
2022/07/16 18:38:46;;;;;;;0.93;0.50;;;20.10;1.00;;;;;;8369054;28;20271;-64
2022/07/16 18:42:47;;;;;;;3.10;0.40;;;20.00;1.00;;;;;;8333908;28;20183;-67
2022/07/16 18:46:47;;;;;;;1.53;0.33;;;19.80;1.00;;;;;;8349473;28;20202;-64
2022/07/16 18:50:48;;;;;;;2.03;0.60;;;19.50;1.00;;;;;;8362956;28;20248;-65
2022/07/16 18:54:49;;;;;;;1.37;0.50;;;18.90;1.00;;;;;;8343820;28;20279;-65
2022/07/16 18:58:50;;;;;;;1.03;0.27;;;18.30;1.00;;;;;;8359231;28;20241;-64
2022/07/16 19:02:51;;;;;;;1.87;0.60;;;18.00;1.00;;;;;;8349496;28;20268;-65
2022/07/16 19:06:52;;;;;;;2.70;0.80;;;17.70;1.00;;;;;;8331590;28;20212;-65
2022/07/16 19:10:53;;;;;;;0.83;0.50;;;17.40;1.00;;;;;;8328552;28;20194;-67
2022/07/16 19:14:54;;;;;;;1.70;0.70;;;17.20;1.00;;;;;;8324007;28;20442;-67
2022/07/16 19:18:56;;;;;;;1.33;0.87;;;16.90;1.00;;;;;;8342409;28;20217;-68
2022/07/16 19:22:57;;;;;;;2.17;0.90;;;16.70;1.00;;;;;;8336794;28;20194;-68
2022/07/16 19:26:57;;;;;;;2.33;1.00;;;16.40;1.00;;;;;;8334186;28;20193;-67
2022/07/16 19:30:58;;;;;;;3.30;1.07;;;16.10;1.00;;;;;;8314557;28;20201;-65
2022/07/16 19:34:59;;;;;;;1.10;0.60;;;15.80;1.00;;;;;;8312925;28;20190;-65
2022/07/16 19:39:00;;;;;;;1.07;0.80;;;15.40;1.00;;;;;;8316760;28;20233;-68
2022/07/16 19:43:01;;;;;;;35.10;12.47;;;15.10;1.00;;;;;;8323724;28;20185;-65
2022/07/16 19:47:02;;;;;;;35.20;12.93;;;14.80;1.00;;;;;;8334455;28;20204;-64
2022/07/16 19:51:03;;;;;;;24.67;13.53;;;14.40;1.00;;;;;;8319988;28;20225;-65
2022/07/16 19:59:24;;;;;;;73.53;41.40;;;14.00;2.10;;;;;;8334314;28;20227;-66
2022/07/16 20:03:24;;;;;;;26.70;15.60;;;13.70;21.50;;;;;;8326285;28;20190;-65
2022/07/16 20:07:26;;;;;;;15.23;8.63;;;13.60;31.60;;;;;;8332434;28;20284;-66
2022/07/16 20:11:27;;;;;;;7.23;5.13;;;13.40;52.10;;;;;;8330949;28;20232;-65
2022/07/16 20:15:28;;;;;;;5.13;4.00;;;13.30;95.10;;;;;;8337757;28;20197;-65
2022/07/16 20:19:29;;;;;;;10.00;6.13;;;13.10;99.90;;;;;;8333880;28;20218;-64
2022/07/16 20:23:30;;;;;;;4.47;1.50;;;13.00;99.90;;;;;;8314246;28;20213;-65
2022/07/16 20:27:31;;;;;;;1.33;0.80;;;13.00;80.50;;;;;;8319619;28;20191;-66
2022/07/16 20:31:32;;;;;;;2.20;0.67;;;13.10;5.40;;;;;;8332564;28;20194;-64
2022/07/16 20:35:33;;;;;;;1.53;0.60;;;13.10;18.40;;;;;;8337706;28;20508;-66
2022/07/16 20:39:34;;;;;;;1.83;0.67;;;13.10;51.50;;;;;;8324885;28;20257;-63
2022/07/16 20:43:35;;;;;;;1.50;0.50;;;12.90;96.50;;;;;;8337853;28;20205;-65
2022/07/16 20:47:37;;;;;;;1.27;0.73;;;12.70;99.90;;;;;;8337837;28;20425;-65
2022/07/16 20:51:38;;;;;;;1.27;0.50;;;12.50;99.90;;;;;;8332198;28;20220;-64
2022/07/16 20:55:39;;;;;;;1.97;0.50;;;12.30;99.90;;;;;;8347212;28;20642;-66
2022/07/16 20:59:40;;;;;;;1.20;0.60;;;12.10;99.90;;;;;;8317050;28;20276;-65
2022/07/16 21:03:41;;;;;;;1.27;0.60;;;12.00;99.90;;;;;;8320228;28;20277;-64
2022/07/16 21:07:42;;;;;;;1.07;0.43;;;11.80;99.90;;;;;;8329687;28;20193;-64
2022/07/16 21:11:43;;;;;;;2.00;0.30;;;11.70;99.90;;;;;;8331621;28;20190;-65
2022/07/16 21:15:44;;;;;;;1.77;0.53;;;11.60;99.90;;;;;;8333925;28;20200;-66
2022/07/16 21:19:45;;;;;;;1.50;0.60;;;11.50;99.90;;;;;;8322847;28;20579;-67
2022/07/16 21:23:45;;;;;;;2.93;0.80;;;11.60;99.90;;;;;;8322089;28;20186;-64